sensor_id;sensor_type;location;lat;lon;timestamp;P1;durP1;ratioP1;P2;durP2;ratioP2
39738;SDS011;25422;48.286;8.484;2023-09-07T00:00:03;9.40;;;6.78;;
39738;SDS011;25422;48.286;8.484;2023-09-07T00:02:37;8.90;;;7.00;;
39738;SDS011;25422;48.286;8.484;2023-09-07T00:05:04;9.55;;;6.40;;
39738;SDS011;25422;48.286;8.484;2023-09-07T00:07:31;9.38;;;7.22;;
39738;SDS011;25422;48.286;8.484;2023-09-07T00:09:56;9.45;;;7.30;;
39738;SDS011;25422;48.286;8.484;2023-09-07T00:12:21;9.77;;;6.97;;
39738;SDS011;25422;48.286;8.484;2023-09-07T00:14:47;8.90;;;7.03;;
39738;SDS011;25422;48.286;8.484;2023-09-07T00:17:12;11.93;;;7.25;;
39738;SDS011;25422;48.286;8.484;2023-09-07T00:19:38;8.45;;;7.35;;
39738;SDS011;25422;48.286;8.484;2023-09-07T00:22:04;8.60;;;7.10;;
39738;SDS011;25422;48.286;8.484;2023-09-07T00:24:30;9.52;;;7.30;;
39738;SDS011;25422;48.286;8.484;2023-09-07T00:26:56;9.27;;;7.65;;
39738;SDS011;25422;48.286;8.484;2023-09-07T00:29:22;8.75;;;7.38;;
39738;SDS011;25422;48.286;8.484;2023-09-07T00:31:47;9.48;;;7.25;;
39738;SDS011;25422;48.286;8.484;2023-09-07T00:34:13;8.23;;;7.20;;
39738;SDS011;25422;48.286;8.484;2023-09-07T00:36:38;10.65;;;7.10;;
39738;SDS011;25422;48.286;8.484;2023-09-07T00:39:04;9.75;;;8.07;;
39738;SDS011;25422;48.286;8.484;2023-09-07T00:41:30;9.20;;;7.97;;
39738;SDS011;25422;48.286;8.484;2023-09-07T00:43:55;8.02;;;6.75;;
39738;SDS011;25422;48.286;8.484;2023-09-07T00:46:21;12.10;;;7.10;;
39738;SDS011;25422;48.286;8.484;2023-09-07T00:48:48;12.43;;;8.60;;
39738;SDS011;25422;48.286;8.484;2023-09-07T00:51:14;11.07;;;8.93;;
39738;SDS011;25422;48.286;8.484;2023-09-07T00:53:40;15.15;;;9.30;;
39738;SDS011;25422;48.286;8.484;2023-09-07T00:56:06;9.43;;;8.32;;
39738;SDS011;25422;48.286;8.484;2023-09-07T00:58:32;12.05;;;9.27;;
39738;SDS011;25422;48.286;8.484;2023-09-07T01:00:58;12.82;;;9.50;;
39738;SDS011;25422;48.286;8.484;2023-09-07T01:03:24;13.35;;;9.77;;
39738;SDS011;25422;48.286;8.484;2023-09-07T01:05:55;12.18;;;8.98;;
39738;SDS011;25422;48.286;8.484;2023-09-07T01:08:32;10.07;;;8.65;;
39738;SDS011;25422;48.286;8.484;2023-09-07T01:11:19;10.63;;;8.40;;
39738;SDS011;25422;48.286;8.484;2023-09-07T01:13:51;11.55;;;9.15;;
39738;SDS011;25422;48.286;8.484;2023-09-07T01:16:19;10.15;;;8.70;;
39738;SDS011;25422;48.286;8.484;2023-09-07T01:18:46;11.32;;;8.65;;
39738;SDS011;25422;48.286;8.484;2023-09-07T01:21:12;11.60;;;9.10;;
39738;SDS011;25422;48.286;8.484;2023-09-07T01:23:42;14.13;;;9.15;;
39738;SDS011;25422;48.286;8.484;2023-09-07T01:26:09;10.32;;;8.63;;
39738;SDS011;25422;48.286;8.484;2023-09-07T01:28:36;11.15;;;8.32;;
39738;SDS011;25422;48.286;8.484;2023-09-07T01:31:03;11.38;;;8.85;;
39738;SDS011;25422;48.286;8.484;2023-09-07T01:33:29;12.68;;;9.57;;
39738;SDS011;25422;48.286;8.484;2023-09-07T01:35:54;11.68;;;9.32;;
39738;SDS011;25422;48.286;8.484;2023-09-07T01:38:20;10.75;;;9.13;;
39738;SDS011;25422;48.286;8.484;2023-09-07T01:40:46;12.75;;;10.23;;
39738;SDS011;25422;48.286;8.484;2023-09-07T01:43:11;12.10;;;9.98;;
39738;SDS011;25422;48.286;8.484;2023-09-07T01:45:37;12.77;;;9.85;;
39738;SDS011;25422;48.286;8.484;2023-09-07T01:48:03;12.75;;;9.48;;
39738;SDS011;25422;48.286;8.484;2023-09-07T01:50:31;11.88;;;9.10;;
39738;SDS011;25422;48.286;8.484;2023-09-07T01:52:57;12.70;;;8.10;;
39738;SDS011;25422;48.286;8.484;2023-09-07T01:55:22;9.30;;;8.13;;
39738;SDS011;25422;48.286;8.484;2023-09-07T01:57:48;10.77;;;8.45;;
39738;SDS011;25422;48.286;8.484;2023-09-07T02:00:13;11.30;;;7.93;;
39738;SDS011;25422;48.286;8.484;2023-09-07T02:02:38;12.23;;;9.05;;
39738;SDS011;25422;48.286;8.484;2023-09-07T02:05:04;11.82;;;8.88;;
39738;SDS011;25422;48.286;8.484;2023-09-07T02:07:30;10.70;;;9.23;;
39738;SDS011;25422;48.286;8.484;2023-09-07T02:09:55;12.10;;;8.93;;
39738;SDS011;25422;48.286;8.484;2023-09-07T02:12:20;11.13;;;8.88;;
39738;SDS011;25422;48.286;8.484;2023-09-07T02:14:46;9.55;;;8.32;;
39738;SDS011;25422;48.286;8.484;2023-09-07T02:17:12;11.35;;;8.95;;
39738;SDS011;25422;48.286;8.484;2023-09-07T02:19:43;10.02;;;8.50;;
39738;SDS011;25422;48.286;8.484;2023-09-07T02:22:09;12.02;;;8.43;;
39738;SDS011;25422;48.286;8.484;2023-09-07T02:24:34;11.77;;;7.95;;
39738;SDS011;25422;48.286;8.484;2023-09-07T02:27:00;8.70;;;7.80;;
39738;SDS011;25422;48.286;8.484;2023-09-07T02:29:25;8.57;;;7.50;;
39738;SDS011;25422;48.286;8.484;2023-09-07T02:31:52;8.35;;;6.65;;
39738;SDS011;25422;48.286;8.484;2023-09-07T02:34:18;10.05;;;8.13;;
39738;SDS011;25422;48.286;8.484;2023-09-07T02:36:43;9.30;;;8.02;;
39738;SDS011;25422;48.286;8.484;2023-09-07T02:39:09;9.63;;;8.45;;
39738;SDS011;25422;48.286;8.484;2023-09-07T02:41:37;11.65;;;8.13;;
39738;SDS011;25422;48.286;8.484;2023-09-07T02:44:03;11.00;;;9.10;;
39738;SDS011;25422;48.286;8.484;2023-09-07T02:46:29;11.05;;;9.20;;
39738;SDS011;25422;48.286;8.484;2023-09-07T02:48:55;9.73;;;8.13;;
39738;SDS011;25422;48.286;8.484;2023-09-07T02:51:23;10.48;;;7.85;;
39738;SDS011;25422;48.286;8.484;2023-09-07T02:53:50;10.73;;;7.80;;
39738;SDS011;25422;48.286;8.484;2023-09-07T02:56:15;10.80;;;7.72;;
39738;SDS011;25422;48.286;8.484;2023-09-07T02:58:41;12.45;;;8.77;;
39738;SDS011;25422;48.286;8.484;2023-09-07T03:01:07;9.65;;;8.23;;
39738;SDS011;25422;48.286;8.484;2023-09-07T03:03:35;10.97;;;8.07;;
39738;SDS011;25422;48.286;8.484;2023-09-07T03:06:34;11.18;;;7.63;;
39738;SDS011;25422;48.286;8.484;2023-09-07T03:08:53;9.02;;;7.55;;
39738;SDS011;25422;48.286;8.484;2023-09-07T03:11:19;12.48;;;8.27;;
39738;SDS011;25422;48.286;8.484;2023-09-07T03:13:47;10.60;;;9.07;;
39738;SDS011;25422;48.286;8.484;2023-09-07T03:16:12;9.10;;;8.20;;
39738;SDS011;25422;48.286;8.484;2023-09-07T03:18:38;9.65;;;7.78;;
39738;SDS011;25422;48.286;8.484;2023-09-07T03:21:03;10.80;;;7.75;;
39738;SDS011;25422;48.286;8.484;2023-09-07T03:23:29;9.32;;;7.32;;
39738;SDS011;25422;48.286;8.484;2023-09-07T03:25:57;13.75;;;7.97;;
39738;SDS011;25422;48.286;8.484;2023-09-07T03:28:23;11.20;;;8.05;;
39738;SDS011;25422;48.286;8.484;2023-09-07T03:30:51;13.75;;;9.32;;
39738;SDS011;25422;48.286;8.484;2023-09-07T03:33:17;13.77;;;8.90;;
39738;SDS011;25422;48.286;8.484;2023-09-07T03:35:42;11.93;;;9.90;;
39738;SDS011;25422;48.286;8.484;2023-09-07T03:38:08;10.07;;;8.77;;
39738;SDS011;25422;48.286;8.484;2023-09-07T03:40:33;9.23;;;8.30;;
39738;SDS011;25422;48.286;8.484;2023-09-07T03:42:59;10.63;;;7.88;;
39738;SDS011;25422;48.286;8.484;2023-09-07T03:45:25;8.20;;;7.40;;
39738;SDS011;25422;48.286;8.484;2023-09-07T03:47:51;9.23;;;8.15;;
39738;SDS011;25422;48.286;8.484;2023-09-07T03:50:18;10.85;;;8.15;;
39738;SDS011;25422;48.286;8.484;2023-09-07T03:52:43;8.77;;;7.90;;
39738;SDS011;25422;48.286;8.484;2023-09-07T03:55:09;9.18;;;7.55;;
39738;SDS011;25422;48.286;8.484;2023-09-07T03:57:35;11.82;;;9.35;;
39738;SDS011;25422;48.286;8.484;2023-09-07T04:00:02;11.20;;;8.52;;
39738;SDS011;25422;48.286;8.484;2023-09-07T04:02:38;29.92;;;9.20;;
39738;SDS011;25422;48.286;8.484;2023-09-07T04:05:03;9.13;;;7.30;;
39738;SDS011;25422;48.286;8.484;2023-09-07T04:07:32;10.07;;;7.90;;
39738;SDS011;25422;48.286;8.484;2023-09-07T04:09:58;14.63;;;8.32;;
39738;SDS011;25422;48.286;8.484;2023-09-07T04:12:23;9.18;;;7.53;;
39738;SDS011;25422;48.286;8.484;2023-09-07T04:14:49;11.77;;;7.65;;
39738;SDS011;25422;48.286;8.484;2023-09-07T04:17:15;13.55;;;8.57;;
39738;SDS011;25422;48.286;8.484;2023-09-07T04:19:40;12.13;;;8.55;;
39738;SDS011;25422;48.286;8.484;2023-09-07T04:22:05;12.98;;;9.40;;
39738;SDS011;25422;48.286;8.484;2023-09-07T04:24:31;8.60;;;7.32;;
39738;SDS011;25422;48.286;8.484;2023-09-07T04:26:58;9.35;;;7.47;;
39738;SDS011;25422;48.286;8.484;2023-09-07T04:29:26;11.27;;;7.85;;
39738;SDS011;25422;48.286;8.484;2023-09-07T04:31:52;9.38;;;6.70;;
39738;SDS011;25422;48.286;8.484;2023-09-07T04:34:17;10.98;;;7.97;;
39738;SDS011;25422;48.286;8.484;2023-09-07T04:36:43;9.50;;;8.02;;
39738;SDS011;25422;48.286;8.484;2023-09-07T04:39:08;11.13;;;7.22;;
39738;SDS011;25422;48.286;8.484;2023-09-07T04:41:33;9.57;;;7.30;;
39738;SDS011;25422;48.286;8.484;2023-09-07T04:43:59;19.80;;;7.43;;
39738;SDS011;25422;48.286;8.484;2023-09-07T04:46:24;11.23;;;7.85;;
39738;SDS011;25422;48.286;8.484;2023-09-07T04:48:51;8.98;;;7.93;;
39738;SDS011;25422;48.286;8.484;2023-09-07T04:51:16;9.57;;;8.10;;
39738;SDS011;25422;48.286;8.484;2023-09-07T04:53:42;10.40;;;8.88;;
39738;SDS011;25422;48.286;8.484;2023-09-07T04:56:08;12.75;;;8.90;;
39738;SDS011;25422;48.286;8.484;2023-09-07T04:58:34;12.20;;;9.57;;
39738;SDS011;25422;48.286;8.484;2023-09-07T05:01:04;12.32;;;8.77;;
39738;SDS011;25422;48.286;8.484;2023-09-07T05:03:31;11.65;;;9.05;;
39738;SDS011;25422;48.286;8.484;2023-09-07T05:05:57;12.63;;;9.48;;
39738;SDS011;25422;48.286;8.484;2023-09-07T05:08:22;10.43;;;9.18;;
39738;SDS011;25422;48.286;8.484;2023-09-07T05:10:54;12.75;;;9.63;;
39738;SDS011;25422;48.286;8.484;2023-09-07T05:13:21;15.80;;;10.73;;
39738;SDS011;25422;48.286;8.484;2023-09-07T05:15:49;17.05;;;11.52;;
39738;SDS011;25422;48.286;8.484;2023-09-07T05:18:17;13.70;;;10.88;;
39738;SDS011;25422;48.286;8.484;2023-09-07T05:20:43;14.25;;;10.27;;
39738;SDS011;25422;48.286;8.484;2023-09-07T05:23:12;12.93;;;10.90;;
39738;SDS011;25422;48.286;8.484;2023-09-07T05:25:48;14.68;;;10.07;;
39738;SDS011;25422;48.286;8.484;2023-09-07T05:28:17;10.82;;;9.38;;
39738;SDS011;25422;48.286;8.484;2023-09-07T05:30:44;13.88;;;9.35;;
39738;SDS011;25422;48.286;8.484;2023-09-07T05:33:10;9.98;;;8.90;;
39738;SDS011;25422;48.286;8.484;2023-09-07T05:35:36;11.75;;;9.20;;
39738;SDS011;25422;48.286;8.484;2023-09-07T05:38:02;13.35;;;9.07;;
39738;SDS011;25422;48.286;8.484;2023-09-07T05:40:29;10.55;;;9.45;;
39738;SDS011;25422;48.286;8.484;2023-09-07T05:42:55;12.05;;;9.40;;
39738;SDS011;25422;48.286;8.484;2023-09-07T05:45:20;11.57;;;8.88;;
39738;SDS011;25422;48.286;8.484;2023-09-07T05:47:46;13.75;;;9.18;;
39738;SDS011;25422;48.286;8.484;2023-09-07T05:50:11;18.67;;;9.63;;
39738;SDS011;25422;48.286;8.484;2023-09-07T05:52:37;14.48;;;8.82;;
39738;SDS011;25422;48.286;8.484;2023-09-07T05:55:03;11.43;;;8.77;;
39738;SDS011;25422;48.286;8.484;2023-09-07T05:57:29;15.65;;;9.30;;
39738;SDS011;25422;48.286;8.484;2023-09-07T05:59:54;13.40;;;9.30;;
39738;SDS011;25422;48.286;8.484;2023-09-07T06:02:20;12.05;;;8.38;;
39738;SDS011;25422;48.286;8.484;2023-09-07T06:04:45;11.95;;;9.27;;
39738;SDS011;25422;48.286;8.484;2023-09-07T06:07:11;11.45;;;8.70;;
39738;SDS011;25422;48.286;8.484;2023-09-07T06:09:36;14.95;;;8.68;;
39738;SDS011;25422;48.286;8.484;2023-09-07T06:12:02;13.55;;;8.38;;
39738;SDS011;25422;48.286;8.484;2023-09-07T06:14:29;11.77;;;8.43;;
39738;SDS011;25422;48.286;8.484;2023-09-07T06:16:54;16.52;;;8.05;;
39738;SDS011;25422;48.286;8.484;2023-09-07T06:19:19;15.60;;;8.68;;
39738;SDS011;25422;48.286;8.484;2023-09-07T06:21:45;15.00;;;8.20;;
39738;SDS011;25422;48.286;8.484;2023-09-07T06:24:11;12.15;;;8.25;;
39738;SDS011;25422;48.286;8.484;2023-09-07T06:26:36;11.90;;;7.70;;
39738;SDS011;25422;48.286;8.484;2023-09-07T06:29:03;9.35;;;7.60;;
39738;SDS011;25422;48.286;8.484;2023-09-07T06:31:29;13.73;;;7.43;;
39738;SDS011;25422;48.286;8.484;2023-09-07T06:33:54;14.68;;;6.78;;
39738;SDS011;25422;48.286;8.484;2023-09-07T06:36:20;10.88;;;6.55;;
39738;SDS011;25422;48.286;8.484;2023-09-07T06:38:45;10.63;;;6.07;;
39738;SDS011;25422;48.286;8.484;2023-09-07T06:41:11;7.15;;;5.43;;
39738;SDS011;25422;48.286;8.484;2023-09-07T06:43:37;6.55;;;4.85;;
39738;SDS011;25422;48.286;8.484;2023-09-07T06:46:05;6.70;;;5.10;;
39738;SDS011;25422;48.286;8.484;2023-09-07T06:51:05;5.75;;;4.82;;
39738;SDS011;25422;48.286;8.484;2023-09-07T06:53:32;8.98;;;5.13;;
39738;SDS011;25422;48.286;8.484;2023-09-07T06:56:01;9.20;;;4.88;;
39738;SDS011;25422;48.286;8.484;2023-09-07T06:58:29;7.18;;;4.55;;
39738;SDS011;25422;48.286;8.484;2023-09-07T07:00:58;9.90;;;4.65;;
39738;SDS011;25422;48.286;8.484;2023-09-07T07:03:26;7.55;;;3.90;;
39738;SDS011;25422;48.286;8.484;2023-09-07T07:05:52;5.72;;;4.13;;
39738;SDS011;25422;48.286;8.484;2023-09-07T07:08:17;6.75;;;3.90;;
39738;SDS011;25422;48.286;8.484;2023-09-07T07:10:43;6.55;;;4.07;;
39738;SDS011;25422;48.286;8.484;2023-09-07T07:13:08;6.10;;;3.72;;
39738;SDS011;25422;48.286;8.484;2023-09-07T07:15:34;10.23;;;4.07;;
39738;SDS011;25422;48.286;8.484;2023-09-07T07:18:01;10.13;;;3.30;;
39738;SDS011;25422;48.286;8.484;2023-09-07T07:20:30;4.75;;;3.25;;
39738;SDS011;25422;48.286;8.484;2023-09-07T07:22:56;8.05;;;3.90;;
39738;SDS011;25422;48.286;8.484;2023-09-07T07:25:22;5.55;;;3.97;;
39738;SDS011;25422;48.286;8.484;2023-09-07T07:27:47;5.03;;;3.72;;
39738;SDS011;25422;48.286;8.484;2023-09-07T07:30:13;6.85;;;4.00;;
39738;SDS011;25422;48.286;8.484;2023-09-07T07:32:40;4.95;;;3.55;;
39738;SDS011;25422;48.286;8.484;2023-09-07T07:35:06;4.60;;;3.40;;
39738;SDS011;25422;48.286;8.484;2023-09-07T07:37:32;6.05;;;3.63;;
39738;SDS011;25422;48.286;8.484;2023-09-07T07:39:57;3.97;;;3.20;;
39738;SDS011;25422;48.286;8.484;2023-09-07T07:42:23;3.83;;;3.30;;
39738;SDS011;25422;48.286;8.484;2023-09-07T07:44:49;6.05;;;3.78;;
39738;SDS011;25422;48.286;8.484;2023-09-07T07:47:15;7.30;;;3.90;;
39738;SDS011;25422;48.286;8.484;2023-09-07T07:49:40;3.80;;;3.40;;
39738;SDS011;25422;48.286;8.484;2023-09-07T07:52:06;6.95;;;4.15;;
39738;SDS011;25422;48.286;8.484;2023-09-07T07:54:32;4.13;;;3.72;;
39738;SDS011;25422;48.286;8.484;2023-09-07T07:56:59;5.35;;;3.80;;
39738;SDS011;25422;48.286;8.484;2023-09-07T07:59:25;4.20;;;3.80;;
39738;SDS011;25422;48.286;8.484;2023-09-07T08:01:51;5.72;;;3.22;;
39738;SDS011;25422;48.286;8.484;2023-09-07T08:04:16;5.93;;;3.80;;
39738;SDS011;25422;48.286;8.484;2023-09-07T08:06:42;5.18;;;3.60;;
39738;SDS011;25422;48.286;8.484;2023-09-07T08:09:08;3.90;;;3.42;;
39738;SDS011;25422;48.286;8.484;2023-09-07T08:11:33;3.45;;;3.15;;
39738;SDS011;25422;48.286;8.484;2023-09-07T08:13:59;5.22;;;3.88;;
39738;SDS011;25422;48.286;8.484;2023-09-07T08:16:24;6.28;;;3.83;;
39738;SDS011;25422;48.286;8.484;2023-09-07T08:18:50;4.28;;;3.58;;
39738;SDS011;25422;48.286;8.484;2023-09-07T08:21:16;5.82;;;3.50;;
39738;SDS011;25422;48.286;8.484;2023-09-07T08:23:43;5.43;;;3.58;;
39738;SDS011;25422;48.286;8.484;2023-09-07T08:26:09;6.30;;;4.63;;
39738;SDS011;25422;48.286;8.484;2023-09-07T08:28:36;7.25;;;4.43;;
39738;SDS011;25422;48.286;8.484;2023-09-07T08:31:01;4.13;;;3.65;;
39738;SDS011;25422;48.286;8.484;2023-09-07T08:33:30;6.72;;;4.10;;
39738;SDS011;25422;48.286;8.484;2023-09-07T08:36:04;6.45;;;3.80;;
39738;SDS011;25422;48.286;8.484;2023-09-07T08:38:30;6.13;;;3.55;;
39738;SDS011;25422;48.286;8.484;2023-09-07T08:40:56;8.73;;;3.60;;
39738;SDS011;25422;48.286;8.484;2023-09-07T08:43:26;4.93;;;3.70;;
39738;SDS011;25422;48.286;8.484;2023-09-07T08:46:13;5.88;;;3.83;;
39738;SDS011;25422;48.286;8.484;2023-09-07T08:48:40;4.97;;;3.33;;
39738;SDS011;25422;48.286;8.484;2023-09-07T08:51:07;4.63;;;3.30;;
39738;SDS011;25422;48.286;8.484;2023-09-07T08:53:34;3.22;;;2.92;;
39738;SDS011;25422;48.286;8.484;2023-09-07T08:56:01;4.50;;;3.40;;
39738;SDS011;25422;48.286;8.484;2023-09-07T08:58:27;3.75;;;3.45;;
39738;SDS011;25422;48.286;8.484;2023-09-07T09:00:52;3.75;;;3.35;;
39738;SDS011;25422;48.286;8.484;2023-09-07T09:03:18;4.38;;;3.55;;
39738;SDS011;25422;48.286;8.484;2023-09-07T09:05:44;6.22;;;3.50;;
39738;SDS011;25422;48.286;8.484;2023-09-07T09:08:09;6.10;;;3.80;;
39738;SDS011;25422;48.286;8.484;2023-09-07T09:10:37;4.07;;;3.30;;
39738;SDS011;25422;48.286;8.484;2023-09-07T09:13:03;5.78;;;3.40;;
39738;SDS011;25422;48.286;8.484;2023-09-07T09:15:29;5.40;;;3.10;;
39738;SDS011;25422;48.286;8.484;2023-09-07T09:17:55;8.13;;;3.53;;
39738;SDS011;25422;48.286;8.484;2023-09-07T09:20:24;6.68;;;3.63;;
39738;SDS011;25422;48.286;8.484;2023-09-07T09:22:52;5.78;;;3.33;;
39738;SDS011;25422;48.286;8.484;2023-09-07T09:25:18;4.70;;;3.42;;
39738;SDS011;25422;48.286;8.484;2023-09-07T09:27:44;4.65;;;2.92;;
39738;SDS011;25422;48.286;8.484;2023-09-07T09:30:10;3.88;;;3.20;;
39738;SDS011;25422;48.286;8.484;2023-09-07T09:32:35;3.58;;;3.17;;
39738;SDS011;25422;48.286;8.484;2023-09-07T09:35:01;3.92;;;3.13;;
39738;SDS011;25422;48.286;8.484;2023-09-07T09:37:30;5.50;;;3.35;;
39738;SDS011;25422;48.286;8.484;2023-09-07T09:39:56;4.32;;;3.08;;
39738;SDS011;25422;48.286;8.484;2023-09-07T09:42:24;3.38;;;3.00;;
39738;SDS011;25422;48.286;8.484;2023-09-07T09:44:50;6.85;;;3.40;;
39738;SDS011;25422;48.286;8.484;2023-09-07T09:47:15;4.10;;;3.58;;
39738;SDS011;25422;48.286;8.484;2023-09-07T09:49:42;6.20;;;3.58;;
39738;SDS011;25422;48.286;8.484;2023-09-07T09:52:08;3.70;;;3.03;;
39738;SDS011;25422;48.286;8.484;2023-09-07T09:54:37;4.97;;;3.70;;
39738;SDS011;25422;48.286;8.484;2023-09-07T09:57:03;3.65;;;3.20;;
39738;SDS011;25422;48.286;8.484;2023-09-07T09:59:29;5.28;;;3.88;;
39738;SDS011;25422;48.286;8.484;2023-09-07T10:01:54;6.35;;;3.75;;
39738;SDS011;25422;48.286;8.484;2023-09-07T10:04:22;6.72;;;3.72;;
39738;SDS011;25422;48.286;8.484;2023-09-07T10:06:54;5.40;;;4.00;;
39738;SDS011;25422;48.286;8.484;2023-09-07T10:09:29;5.38;;;4.03;;
39738;SDS011;25422;48.286;8.484;2023-09-07T10:11:57;7.47;;;4.03;;
39738;SDS011;25422;48.286;8.484;2023-09-07T10:14:24;5.18;;;3.40;;
39738;SDS011;25422;48.286;8.484;2023-09-07T10:16:53;4.22;;;3.83;;
39738;SDS011;25422;48.286;8.484;2023-09-07T10:19:25;3.92;;;3.63;;
39738;SDS011;25422;48.286;8.484;2023-09-07T10:21:54;5.75;;;4.13;;
39738;SDS011;25422;48.286;8.484;2023-09-07T10:24:25;4.82;;;3.80;;
39738;SDS011;25422;48.286;8.484;2023-09-07T10:27:02;6.70;;;4.35;;
39738;SDS011;25422;48.286;8.484;2023-09-07T10:29:39;6.45;;;3.90;;
39738;SDS011;25422;48.286;8.484;2023-09-07T10:32:09;5.45;;;4.55;;
39738;SDS011;25422;48.286;8.484;2023-09-07T10:34:37;4.65;;;3.55;;
39738;SDS011;25422;48.286;8.484;2023-09-07T10:37:14;5.35;;;3.90;;
39738;SDS011;25422;48.286;8.484;2023-09-07T10:39:41;4.80;;;3.67;;
39738;SDS011;25422;48.286;8.484;2023-09-07T10:42:20;6.20;;;3.63;;
39738;SDS011;25422;48.286;8.484;2023-09-07T10:44:47;4.07;;;3.67;;
39738;SDS011;25422;48.286;8.484;2023-09-07T10:47:12;4.22;;;3.65;;
39738;SDS011;25422;48.286;8.484;2023-09-07T10:49:38;6.10;;;3.65;;
39738;SDS011;25422;48.286;8.484;2023-09-07T10:52:04;4.70;;;3.40;;
39738;SDS011;25422;48.286;8.484;2023-09-07T10:54:29;4.60;;;3.20;;
39738;SDS011;25422;48.286;8.484;2023-09-07T10:56:55;3.67;;;3.03;;
39738;SDS011;25422;48.286;8.484;2023-09-07T10:59:22;3.88;;;3.35;;
39738;SDS011;25422;48.286;8.484;2023-09-07T11:01:48;4.65;;;3.58;;
39738;SDS011;25422;48.286;8.484;2023-09-07T11:04:13;6.43;;;3.70;;
39738;SDS011;25422;48.286;8.484;2023-09-07T11:06:40;4.30;;;3.75;;
39738;SDS011;25422;48.286;8.484;2023-09-07T11:09:06;5.43;;;3.70;;
39738;SDS011;25422;48.286;8.484;2023-09-07T11:11:35;3.63;;;3.25;;
39738;SDS011;25422;48.286;8.484;2023-09-07T11:14:04;3.40;;;3.10;;
39738;SDS011;25422;48.286;8.484;2023-09-07T11:18:55;5.20;;;3.08;;
39738;SDS011;25422;48.286;8.484;2023-09-07T11:21:21;7.43;;;3.50;;
39738;SDS011;25422;48.286;8.484;2023-09-07T11:23:46;4.32;;;3.17;;
39738;SDS011;25422;48.286;8.484;2023-09-07T11:26:11;5.70;;;3.10;;
39738;SDS011;25422;48.286;8.484;2023-09-07T11:28:37;5.25;;;3.25;;
39738;SDS011;25422;48.286;8.484;2023-09-07T11:31:03;5.35;;;3.05;;
39738;SDS011;25422;48.286;8.484;2023-09-07T11:33:32;4.47;;;3.47;;
39738;SDS011;25422;48.286;8.484;2023-09-07T11:35:58;3.65;;;3.08;;
39738;SDS011;25422;48.286;8.484;2023-09-07T11:38:28;4.93;;;3.40;;
39738;SDS011;25422;48.286;8.484;2023-09-07T11:40:54;4.93;;;3.10;;
39738;SDS011;25422;48.286;8.484;2023-09-07T11:43:20;5.57;;;3.45;;
39738;SDS011;25422;48.286;8.484;2023-09-07T11:45:46;5.53;;;3.30;;
39738;SDS011;25422;48.286;8.484;2023-09-07T11:48:12;3.72;;;2.90;;
39738;SDS011;25422;48.286;8.484;2023-09-07T11:50:37;4.07;;;3.33;;
39738;SDS011;25422;48.286;8.484;2023-09-07T11:53:04;4.18;;;2.88;;
39738;SDS011;25422;48.286;8.484;2023-09-07T11:55:30;5.32;;;3.50;;
39738;SDS011;25422;48.286;8.484;2023-09-07T11:57:56;3.53;;;3.22;;
39738;SDS011;25422;48.286;8.484;2023-09-07T12:00:21;3.65;;;3.03;;
39738;SDS011;25422;48.286;8.484;2023-09-07T12:02:47;4.32;;;3.17;;
39738;SDS011;25422;48.286;8.484;2023-09-07T12:05:13;3.78;;;2.90;;
39738;SDS011;25422;48.286;8.484;2023-09-07T12:07:41;3.55;;;3.25;;
39738;SDS011;25422;48.286;8.484;2023-09-07T12:10:10;7.00;;;3.50;;
39738;SDS011;25422;48.286;8.484;2023-09-07T12:12:37;4.28;;;3.03;;
39738;SDS011;25422;48.286;8.484;2023-09-07T12:15:03;4.80;;;3.40;;
39738;SDS011;25422;48.286;8.484;2023-09-07T12:17:29;5.22;;;3.17;;
39738;SDS011;25422;48.286;8.484;2023-09-07T12:19:55;3.55;;;3.25;;
39738;SDS011;25422;48.286;8.484;2023-09-07T12:22:21;4.88;;;3.83;;
39738;SDS011;25422;48.286;8.484;2023-09-07T12:24:46;5.68;;;3.63;;
39738;SDS011;25422;48.286;8.484;2023-09-07T12:27:11;6.93;;;3.58;;
39738;SDS011;25422;48.286;8.484;2023-09-07T12:29:37;3.55;;;2.83;;
39738;SDS011;25422;48.286;8.484;2023-09-07T12:32:02;6.13;;;3.38;;
39738;SDS011;25422;48.286;8.484;2023-09-07T12:34:28;3.88;;;3.10;;
39738;SDS011;25422;48.286;8.484;2023-09-07T12:36:53;5.30;;;2.85;;
39738;SDS011;25422;48.286;8.484;2023-09-07T12:39:19;4.28;;;3.13;;
39738;SDS011;25422;48.286;8.484;2023-09-07T12:41:44;4.03;;;3.20;;
39738;SDS011;25422;48.286;8.484;2023-09-07T12:44:09;4.70;;;3.20;;
39738;SDS011;25422;48.286;8.484;2023-09-07T12:46:35;3.70;;;3.40;;
39738;SDS011;25422;48.286;8.484;2023-09-07T12:49:02;5.68;;;2.90;;
39738;SDS011;25422;48.286;8.484;2023-09-07T12:51:28;5.65;;;3.47;;
39738;SDS011;25422;48.286;8.484;2023-09-07T12:53:53;6.28;;;3.00;;
39738;SDS011;25422;48.286;8.484;2023-09-07T12:56:18;3.92;;;2.60;;
39738;SDS011;25422;48.286;8.484;2023-09-07T12:58:44;3.30;;;3.00;;
39738;SDS011;25422;48.286;8.484;2023-09-07T13:01:10;3.42;;;3.13;;
39738;SDS011;25422;48.286;8.484;2023-09-07T13:03:37;4.90;;;3.00;;
39738;SDS011;25422;48.286;8.484;2023-09-07T13:06:02;3.38;;;3.08;;
39738;SDS011;25422;48.286;8.484;2023-09-07T13:08:28;5.50;;;3.15;;
39738;SDS011;25422;48.286;8.484;2023-09-07T13:10:57;7.53;;;3.30;;
39738;SDS011;25422;48.286;8.484;2023-09-07T13:13:22;4.22;;;2.70;;
39738;SDS011;25422;48.286;8.484;2023-09-07T13:15:51;9.10;;;3.60;;
39738;SDS011;25422;48.286;8.484;2023-09-07T13:18:17;7.07;;;3.17;;
39738;SDS011;25422;48.286;8.484;2023-09-07T13:20:42;11.75;;;3.45;;
39738;SDS011;25422;48.286;8.484;2023-09-07T13:23:07;4.97;;;3.00;;
39738;SDS011;25422;48.286;8.484;2023-09-07T13:25:33;7.20;;;3.38;;
39738;SDS011;25422;48.286;8.484;2023-09-07T13:27:58;10.27;;;3.58;;
39738;SDS011;25422;48.286;8.484;2023-09-07T13:30:23;4.50;;;3.30;;
39738;SDS011;25422;48.286;8.484;2023-09-07T13:32:49;12.40;;;3.33;;
39738;SDS011;25422;48.286;8.484;2023-09-07T13:35:15;6.07;;;3.90;;
39738;SDS011;25422;48.286;8.484;2023-09-07T13:37:40;5.20;;;3.78;;
39738;SDS011;25422;48.286;8.484;2023-09-07T13:40:06;7.53;;;3.80;;
39738;SDS011;25422;48.286;8.484;2023-09-07T13:42:33;15.27;;;4.32;;
39738;SDS011;25422;48.286;8.484;2023-09-07T13:44:58;44.33;;;5.18;;
39738;SDS011;25422;48.286;8.484;2023-09-07T13:47:24;4.03;;;3.30;;
39738;SDS011;25422;48.286;8.484;2023-09-07T13:49:49;5.43;;;3.53;;
39738;SDS011;25422;48.286;8.484;2023-09-07T13:52:14;9.85;;;4.30;;
39738;SDS011;25422;48.286;8.484;2023-09-07T13:54:40;21.40;;;4.60;;
39738;SDS011;25422;48.286;8.484;2023-09-07T13:57:05;5.20;;;3.53;;
39738;SDS011;25422;48.286;8.484;2023-09-07T13:59:30;15.52;;;3.90;;
39738;SDS011;25422;48.286;8.484;2023-09-07T14:01:59;9.95;;;3.97;;
39738;SDS011;25422;48.286;8.484;2023-09-07T14:04:25;5.35;;;3.72;;
39738;SDS011;25422;48.286;8.484;2023-09-07T14:06:51;9.90;;;4.30;;
39738;SDS011;25422;48.286;8.484;2023-09-07T14:09:17;7.63;;;3.92;;
39738;SDS011;25422;48.286;8.484;2023-09-07T14:11:42;6.55;;;4.13;;
39738;SDS011;25422;48.286;8.484;2023-09-07T14:14:08;7.38;;;3.67;;
39738;SDS011;25422;48.286;8.484;2023-09-07T14:16:34;10.20;;;3.88;;
39738;SDS011;25422;48.286;8.484;2023-09-07T14:18:59;8.52;;;4.10;;
39738;SDS011;25422;48.286;8.484;2023-09-07T14:21:24;5.32;;;3.88;;
39738;SDS011;25422;48.286;8.484;2023-09-07T14:23:50;7.13;;;3.75;;
39738;SDS011;25422;48.286;8.484;2023-09-07T14:26:15;6.55;;;4.18;;
39738;SDS011;25422;48.286;8.484;2023-09-07T14:28:41;3.95;;;3.45;;
39738;SDS011;25422;48.286;8.484;2023-09-07T14:31:06;6.13;;;3.60;;
39738;SDS011;25422;48.286;8.484;2023-09-07T14:33:33;8.25;;;4.07;;
39738;SDS011;25422;48.286;8.484;2023-09-07T14:35:59;6.47;;;4.10;;
39738;SDS011;25422;48.286;8.484;2023-09-07T14:38:24;9.20;;;4.10;;
39738;SDS011;25422;48.286;8.484;2023-09-07T14:40:52;4.47;;;3.63;;
39738;SDS011;25422;48.286;8.484;2023-09-07T14:43:20;7.40;;;4.00;;